Time;durP1;ratioP1;P1;durP2;ratioP2;P2;SDS_P1;SDS_P2;PMS_P1;PMS_P2;Temp;Humidity;BMP_temperature;BMP_pressure;BME280_temperature;BME280_humidity;BME280_pressure;Samples;Min_cycle;Max_cycle;Signal;HPM_P1;HPM_P2
2022/05/06 00:02:05;;;;;;;26.90;20.10;;;12.60;99.90;;;;;;5043389;28;20174;-83
2022/05/06 00:04:31;;;;;;;25.37;20.47;;;12.70;99.90;;;;;;5057554;28;20182;-84
2022/05/06 00:06:57;;;;;;;27.40;21.37;;;12.80;99.90;;;;;;5034379;28;20293;-84
2022/05/06 00:09:24;;;;;;;25.67;20.80;;;13.00;99.90;;;;;;5034427;28;20173;-85
2022/05/06 00:11:51;;;;;;;28.97;22.60;;;13.00;99.90;;;;;;5034564;28;20658;-84
2022/05/06 00:14:19;;;;;;;27.97;21.87;;;12.90;98.90;;;;;;5034222;28;20158;-85
2022/05/06 00:16:44;;;;;;;30.50;23.50;;;13.00;98.80;;;;;;5034079;28;20194;-84
2022/05/06 00:19:10;;;;;;;31.20;24.67;;;13.00;98.20;;;;;;5034693;28;20502;-85
2022/05/06 00:21:36;;;;;;;33.23;24.20;;;13.00;97.70;;;;;;5034522;28;20205;-82
2022/05/06 00:24:06;;;;;;;30.53;24.17;;;13.00;97.50;;;;;;5036555;28;20269;-84
2022/05/06 00:26:31;;;;;;;31.60;22.90;;;13.00;97.80;;;;;;5057423;28;20175;-80
2022/05/06 00:28:57;;;;;;;31.20;23.93;;;13.10;97.20;;;;;;5057287;28;20176;-82
2022/05/06 00:31:23;;;;;;;31.47;25.03;;;12.90;96.70;;;;;;5048485;28;20212;-83
2022/05/06 00:33:48;;;;;;;29.40;22.33;;;12.60;99.30;;;;;;5049005;28;20200;-84
2022/05/06 00:36:17;;;;;;;27.67;23.07;;;12.50;99.90;;;;;;5035541;28;20177;-84
2022/05/06 00:38:46;;;;;;;29.67;23.17;;;12.40;99.90;;;;;;5033300;28;20201;-84
2022/05/06 00:41:14;;;;;;;32.83;24.20;;;12.40;99.90;;;;;;5035395;28;20159;-84
2022/05/06 00:43:42;;;;;;;39.43;24.13;;;12.30;99.90;;;;;;5038660;28;20583;-85
2022/05/06 00:46:12;;;;;;;31.93;24.83;;;12.10;99.90;;;;;;5039425;28;20178;-82
2022/05/06 00:48:41;;;;;;;33.00;24.60;;;11.80;99.90;;;;;;5042511;28;20205;-84
2022/05/06 00:51:08;;;;;;;30.00;23.30;;;11.70;99.90;;;;;;5048964;28;20162;-83
2022/05/06 00:53:37;;;;;;;33.00;25.97;;;11.50;99.90;;;;;;5049178;28;20203;-82
2022/05/06 00:56:07;;;;;;;33.37;26.27;;;11.50;99.90;;;;;;5044876;28;20170;-84
2022/05/06 00:58:33;;;;;;;37.10;26.83;;;11.50;99.90;;;;;;5036897;28;20178;-85
2022/05/06 01:01:01;;;;;;;37.53;26.87;;;11.80;99.90;;;;;;5037259;28;20177;-86
2022/05/06 01:03:27;;;;;;;35.80;25.70;;;11.60;99.90;;;;;;5037733;28;20260;-84
2022/05/06 01:05:52;;;;;;;81.33;27.00;;;11.50;99.90;;;;;;5037643;28;20249;-83
2022/05/06 01:08:19;;;;;;;37.63;27.07;;;11.40;99.90;;;;;;5036684;28;20209;-85
2022/05/06 01:10:46;;;;;;;46.93;27.93;;;11.70;99.90;;;;;;5036911;28;20196;-85
2022/05/06 01:13:12;;;;;;;39.93;27.53;;;11.90;99.90;;;;;;5037545;28;20197;-84
2022/05/06 01:15:38;;;;;;;30.40;24.17;;;12.00;99.90;;;;;;5037274;28;20228;-81
2022/05/06 01:18:04;;;;;;;38.20;26.03;;;11.90;99.90;;;;;;5038287;28;20165;-85
2022/05/06 01:20:33;;;;;;;31.23;24.03;;;11.60;99.90;;;;;;5036754;28;20656;-84
2022/05/06 01:23:00;;;;;;;35.37;24.93;;;11.60;99.90;;;;;;5036819;28;20673;-84
2022/05/06 01:25:26;;;;;;;30.87;23.47;;;11.50;99.90;;;;;;5037181;28;20180;-83
2022/05/06 01:28:05;;;;;;;29.77;23.53;;;11.50;99.90;;;;;;5037210;28;20220;-84
2022/05/06 01:30:39;;;;;;;30.27;23.60;;;11.50;99.90;;;;;;5037088;28;20178;-85
2022/05/06 01:33:08;;;;;;;31.67;23.67;;;11.40;99.90;;;;;;5036692;28;20193;-84
2022/05/06 01:35:37;;;;;;;30.70;23.53;;;11.30;99.90;;;;;;5036871;28;20177;-83
2022/05/06 01:38:05;;;;;;;30.27;22.53;;;11.40;99.90;;;;;;5036874;28;20176;-84
2022/05/06 01:40:37;;;;;;;30.70;23.13;;;11.30;99.90;;;;;;5037233;28;20169;-84
2022/05/06 01:43:07;;;;;;;135.53;23.57;;;11.30;99.90;;;;;;5037632;28;20162;-83
2022/05/06 01:45:36;;;;;;;35.93;24.93;;;11.40;99.90;;;;;;5039693;28;20172;-84
2022/05/06 01:48:03;;;;;;;29.67;22.37;;;11.50;99.90;;;;;;5039382;28;20253;-83
2022/05/06 01:50:32;;;;;;;33.13;24.37;;;11.50;99.90;;;;;;5034032;28;20209;-83
2022/05/06 01:53:02;;;;;;;37.60;23.90;;;11.50;99.90;;;;;;5026670;28;20273;-84
2022/05/06 01:55:29;;;;;;;40.77;24.53;;;11.60;99.90;;;;;;5034936;28;20228;-82
2022/05/06 01:57:55;;;;;;;38.10;25.30;;;11.70;99.90;;;;;;5036757;28;20177;-83
2022/05/06 02:00:21;;;;;;;53.83;26.20;;;11.80;99.90;;;;;;5035662;28;20184;-84
2022/05/06 02:02:47;;;;;;;41.77;25.20;;;11.60;99.90;;;;;;5035952;28;20174;-83
2022/05/06 02:05:19;;;;;;;40.27;25.90;;;11.60;99.90;;;;;;5034796;28;20185;-82
2022/05/06 02:07:49;;;;;;;46.97;26.90;;;11.60;99.90;;;;;;5036474;28;20208;-83
2022/05/06 02:10:16;;;;;;;35.37;25.07;;;11.60;99.90;;;;;;5035337;28;20224;-84
2022/05/06 02:12:43;;;;;;;37.23;25.97;;;11.80;99.90;;;;;;5037486;28;20169;-83
2022/05/06 02:15:10;;;;;;;29.07;22.80;;;11.70;99.90;;;;;;5040220;28;20264;-83
2022/05/06 02:17:40;;;;;;;35.93;24.73;;;11.70;99.90;;;;;;5041956;28;20217;-84
2022/05/06 02:20:08;;;;;;;30.17;23.63;;;11.60;99.90;;;;;;5041321;28;20521;-85
2022/05/06 02:22:35;;;;;;;29.93;23.50;;;11.50;99.90;;;;;;5046417;28;20169;-83
2022/05/06 02:25:04;;;;;;;27.43;21.73;;;11.50;99.90;;;;;;5050535;28;20162;-84
2022/05/06 02:27:31;;;;;;;31.13;23.07;;;11.20;99.90;;;;;;5048163;28;20202;-80
2022/05/06 02:35:26;;;;;;;33.67;22.33;;;11.20;99.90;;;;;;5035397;28;20177;-82
2022/05/06 02:38:00;;;;;;;24.20;20.47;;;11.10;99.90;;;;;;5035950;28;20677;-83
2022/05/06 02:40:26;;;;;;;34.33;19.83;;;10.90;99.90;;;;;;5035587;28;20652;-83
2022/05/06 02:42:51;;;;;;;30.50;19.13;;;10.70;99.90;;;;;;5036190;28;20211;-83
2022/05/06 02:45:17;;;;;;;29.43;20.07;;;10.80;99.90;;;;;;5035172;28;20249;-85
2022/05/06 02:47:43;;;;;;;36.10;22.37;;;10.70;99.90;;;;;;5035543;28;20216;-82
2022/05/06 02:50:09;;;;;;;42.20;22.83;;;10.70;99.90;;;;;;5037515;28;20191;-83
2022/05/06 02:52:35;;;;;;;29.50;22.10;;;10.70;99.90;;;;;;5043286;28;20378;-80
2022/05/06 02:55:00;;;;;;;28.00;21.03;;;10.80;99.90;;;;;;5043224;28;20192;-82
2022/05/06 02:57:27;;;;;;;27.27;20.53;;;10.80;99.90;;;;;;5036540;28;20173;-84
2022/05/06 02:59:52;;;;;;;121.03;23.03;;;10.80;99.90;;;;;;5035502;28;20176;-84
2022/05/06 03:02:18;;;;;;;30.80;23.23;;;10.90;99.90;;;;;;5035069;28;20264;-84
2022/05/06 03:04:44;;;;;;;33.13;23.73;;;11.00;99.90;;;;;;5034929;28;20249;-84
2022/05/06 03:07:09;;;;;;;29.63;21.27;;;11.20;99.90;;;;;;5034965;28;20206;-84
2022/05/06 03:09:39;;;;;;;29.87;21.17;;;11.10;99.90;;;;;;5035774;28;20185;-82
2022/05/06 03:12:05;;;;;;;32.47;22.10;;;11.00;99.90;;;;;;5035342;28;20580;-86
2022/05/06 03:14:31;;;;;;;32.80;21.30;;;10.90;99.90;;;;;;5034932;28;20200;-84
2022/05/06 03:16:57;;;;;;;30.53;21.50;;;10.80;99.90;;;;;;5034821;28;20224;-83
2022/05/06 03:19:22;;;;;;;31.40;21.57;;;10.70;99.90;;;;;;5033692;28;20239;-81
2022/05/06 03:21:56;;;;;;;35.50;22.67;;;10.70;99.90;;;;;;5035195;28;20166;-82
2022/05/06 03:24:22;;;;;;;39.80;23.60;;;10.70;99.90;;;;;;5035450;28;20304;-85
2022/05/06 03:26:48;;;;;;;50.87;24.30;;;11.00;99.90;;;;;;5034633;28;20225;-83
2022/05/06 03:29:14;;;;;;;37.67;24.33;;;11.00;99.90;;;;;;5035194;28;20658;-84
2022/05/06 03:31:39;;;;;;;38.53;23.37;;;11.20;99.90;;;;;;5054026;28;20154;-84
2022/05/06 03:34:06;;;;;;;65.40;24.87;;;11.20;99.90;;;;;;5057264;28;20190;-78
2022/05/06 03:36:33;;;;;;;39.23;24.60;;;11.30;99.90;;;;;;5057211;28;20236;-79
2022/05/06 03:39:03;;;;;;;50.97;25.47;;;11.30;99.90;;;;;;5054557;28;20673;-83
2022/05/06 03:41:30;;;;;;;36.00;23.47;;;11.10;99.90;;;;;;5039296;28;20165;-84
2022/05/06 03:43:55;;;;;;;35.23;24.70;;;11.00;99.90;;;;;;5035950;28;20185;-83
2022/05/06 03:46:21;;;;;;;45.17;25.60;;;10.90;99.90;;;;;;5038196;28;20567;-85
2022/05/06 03:48:51;;;;;;;38.50;25.03;;;11.00;99.90;;;;;;5036056;28;20213;-85
2022/05/06 03:51:22;;;;;;;68.57;26.60;;;10.90;99.90;;;;;;5035179;28;20166;-84
2022/05/06 03:53:53;;;;;;;41.60;23.33;;;10.90;99.90;;;;;;5034746;28;20217;-84
2022/05/06 03:56:25;;;;;;;42.73;25.07;;;10.90;99.90;;;;;;5034808;28;20165;-84
2022/05/06 03:58:51;;;;;;;44.27;25.70;;;11.00;99.90;;;;;;5034936;28;20157;-85
2022/05/06 04:01:19;;;;;;;44.97;23.47;;;11.00;99.90;;;;;;5034812;28;20180;-84
2022/05/06 04:03:48;;;;;;;40.77;24.10;;;11.00;99.90;;;;;;5034852;28;20260;-83
2022/05/06 04:06:14;;;;;;;39.40;22.57;;;10.90;99.90;;;;;;5035117;28;21066;-83
2022/05/06 04:08:41;;;;;;;39.30;21.10;;;10.90;99.90;;;;;;5036411;28;20205;-82
2022/05/06 04:11:11;;;;;;;38.90;22.67;;;10.90;99.90;;;;;;5037923;28;20185;-84
2022/05/06 04:13:37;;;;;;;73.17;23.40;;;10.80;99.90;;;;;;5041012;28;20216;-84
2022/05/06 04:16:04;;;;;;;51.07;24.30;;;10.70;99.90;;;;;;5055962;28;20201;-83
2022/05/06 04:18:30;;;;;;;77.87;25.10;;;10.70;99.90;;;;;;5060968;28;20246;-80
2022/05/06 04:23:41;;;;;;;57.67;23.00;;;10.80;99.90;;;;;;5054808;28;20180;-83
2022/05/06 04:26:12;;;;;;;47.03;24.43;;;10.80;99.90;;;;;;5058959;28;20170;-78
2022/05/06 04:28:38;;;;;;;57.50;25.50;;;10.90;99.90;;;;;;5057592;28;20213;-83
2022/05/06 04:31:05;;;;;;;44.57;24.13;;;10.80;99.90;;;;;;5060298;28;20181;-81
2022/05/06 04:33:31;;;;;;;47.80;24.87;;;11.00;99.90;;;;;;5054770;28;20692;-83
2022/05/06 04:36:00;;;;;;;44.70;24.83;;;11.10;99.90;;;;;;5051956;28;20173;-82
2022/05/06 04:38:28;;;;;;;40.93;23.87;;;11.20;99.90;;;;;;5060736;28;20692;-80
2022/05/06 04:41:03;;;;;;;42.03;25.10;;;11.10;99.90;;;;;;5061801;28;20182;-81
2022/05/06 04:43:30;;;;;;;31.07;20.13;;;11.00;99.90;;;;;;5061526;28;20187;-85
2022/05/06 04:45:56;;;;;;;32.43;21.00;;;11.00;99.90;;;;;;5059493;28;20157;-83
2022/05/06 04:48:22;;;;;;;28.33;19.47;;;11.10;99.90;;;;;;5063274;28;20197;-82
2022/05/06 04:50:51;;;;;;;32.77;20.77;;;11.00;99.90;;;;;;5063406;28;20149;-83
2022/05/06 04:53:29;;;;;;;30.33;19.67;;;11.00;99.90;;;;;;5056406;28;20245;-83
2022/05/06 04:56:06;;;;;;;22.47;16.37;;;11.00;99.90;;;;;;5055121;28;20165;-84
2022/05/06 04:58:35;;;;;;;24.90;16.83;;;10.80;99.90;;;;;;5053844;28;20633;-83
2022/05/06 05:01:04;;;;;;;24.53;17.93;;;10.60;99.90;;;;;;5044173;28;20660;-82
2022/05/06 05:03:43;;;;;;;26.63;16.97;;;10.60;99.90;;;;;;5040747;28;20176;-85
2022/05/06 05:06:09;;;;;;;22.97;17.17;;;10.60;99.90;;;;;;5040891;28;20166;-83
2022/05/06 05:08:35;;;;;;;22.47;16.30;;;10.70;99.90;;;;;;5040986;28;20241;-85
2022/05/06 05:11:03;;;;;;;26.83;16.10;;;10.60;99.90;;;;;;5040215;28;20170;-84
2022/05/06 05:13:34;;;;;;;26.37;17.73;;;10.40;99.90;;;;;;5048548;28;20173;-84
2022/05/06 05:15:59;;;;;;;35.40;24.63;;;10.50;99.90;;;;;;5044845;28;20537;-85
2022/05/06 05:18:25;;;;;;;25.43;18.07;;;10.50;99.90;;;;;;5041482;28;20189;-85
2022/05/06 05:20:51;;;;;;;25.57;18.83;;;10.60;99.90;;;;;;5040583;28;20514;-85
2022/05/06 05:23:17;;;;;;;31.00;19.87;;;10.60;99.90;;;;;;5040628;28;20689;-84
2022/05/06 05:25:43;;;;;;;29.50;19.87;;;10.70;99.90;;;;;;5040318;28;20174;-83
2022/05/06 05:28:08;;;;;;;29.40;19.97;;;10.70;99.90;;;;;;5038490;28;20235;-82
2022/05/06 05:30:35;;;;;;;27.13;19.50;;;10.80;99.90;;;;;;5037129;28;20170;-84
2022/05/06 05:33:01;;;;;;;26.67;18.43;;;10.80;99.90;;;;;;5036649;28;20523;-85
2022/05/06 05:35:29;;;;;;;25.13;18.33;;;10.90;99.90;;;;;;5037153;28;20166;-84
2022/05/06 05:37:57;;;;;;;30.87;21.43;;;10.90;99.90;;;;;;5037932;28;20539;-86
2022/05/06 05:40:23;;;;;;;30.00;20.53;;;10.90;99.90;;;;;;5036748;28;20236;-84
2022/05/06 05:42:58;;;;;;;30.30;20.10;;;11.00;99.90;;;;;;5037386;28;20162;-84
2022/05/06 05:48:20;;;;;;;26.87;19.40;;;11.00;99.90;;;;;;5037072;28;20220;-85
2022/05/06 05:50:47;;;;;;;30.07;20.43;;;11.10;99.90;;;;;;5037678;28;20166;-82
2022/05/06 05:53:13;;;;;;;29.83;20.73;;;11.20;99.90;;;;;;5036466;28;20638;-86
2022/05/06 05:55:38;;;;;;;29.13;20.53;;;11.30;99.90;;;;;;5037652;28;20176;-85
2022/05/06 05:58:05;;;;;;;30.77;21.70;;;11.50;99.90;;;;;;5036800;28;20173;-87
2022/05/06 06:00:31;;;;;;;28.40;19.83;;;11.40;99.90;;;;;;5038062;28;20185;-86
2022/05/06 06:02:59;;;;;;;33.40;23.07;;;11.40;99.90;;;;;;5037435;28;20185;-84
2022/05/06 06:05:25;;;;;;;27.27;19.53;;;11.50;99.90;;;;;;5019206;28;20179;-83
2022/05/06 06:07:51;;;;;;;28.87;19.60;;;11.70;99.90;;;;;;5025398;28;20205;-85
2022/05/06 06:10:16;;;;;;;26.70;19.70;;;11.80;99.90;;;;;;5037843;28;20626;-83
2022/05/06 06:12:42;;;;;;;28.47;19.70;;;12.00;99.90;;;;;;5038437;28;20170;-85
2022/05/06 06:15:08;;;;;;;29.50;21.87;;;12.10;99.90;;;;;;5038401;28;20173;-84
2022/05/06 06:17:33;;;;;;;28.63;21.30;;;12.20;99.90;;;;;;5037586;28;20223;-81
2022/05/06 06:20:01;;;;;;;34.80;22.00;;;12.40;99.90;;;;;;5038361;28;20220;-86
2022/05/06 06:22:27;;;;;;;34.87;22.83;;;12.50;99.90;;;;;;5039024;28;20170;-86
2022/05/06 06:24:54;;;;;;;29.47;22.40;;;12.60;99.90;;;;;;5039070;28;20479;-86
2022/05/06 06:27:19;;;;;;;29.13;22.73;;;12.60;99.90;;;;;;5039079;28;20560;-85
2022/05/06 06:29:47;;;;;;;30.60;22.33;;;12.70;99.90;;;;;;5038973;28;20250;-84
2022/05/06 06:32:13;;;;;;;33.87;23.57;;;12.50;99.90;;;;;;5043750;28;20178;-86
2022/05/06 06:34:39;;;;;;;31.60;22.97;;;12.30;99.90;;;;;;5049063;28;20192;-85
2022/05/06 06:37:05;;;;;;;31.50;22.83;;;12.10;99.90;;;;;;5047723;28;20172;-84
2022/05/06 06:39:31;;;;;;;32.10;22.17;;;12.20;99.90;;;;;;5052197;28;20659;-86
2022/05/06 06:41:57;;;;;;;28.67;21.93;;;12.00;99.90;;;;;;5051679;28;20177;-85
2022/05/06 06:44:24;;;;;;;31.07;22.77;;;11.90;99.90;;;;;;5051417;28;20189;-79
2022/05/06 06:46:49;;;;;;;31.23;23.37;;;11.70;99.90;;;;;;5044844;28;20570;-84
2022/05/06 06:49:16;;;;;;;32.03;22.47;;;11.70;99.90;;;;;;5042928;28;20185;-85
2022/05/06 06:51:47;;;;;;;31.43;22.47;;;11.90;99.90;;;;;;5049261;28;20185;-82
2022/05/06 06:54:13;;;;;;;28.30;20.53;;;11.90;99.90;;;;;;5051142;28;20733;-84
2022/05/06 06:56:41;;;;;;;27.23;20.30;;;11.90;99.90;;;;;;5048494;28;20161;-87
2022/05/06 06:59:11;;;;;;;26.60;20.33;;;11.80;99.90;;;;;;5038824;28;20631;-84
2022/05/06 07:01:39;;;;;;;26.60;19.83;;;11.80;99.90;;;;;;5038015;28;20228;-87
2022/05/06 07:04:05;;;;;;;26.47;19.27;;;11.90;99.90;;;;;;5037286;28;20241;-84
2022/05/06 07:11:59;;;;;;;30.47;21.60;;;11.80;99.90;;;;;;5035500;28;20696;-80
2022/05/06 07:14:26;;;;;;;29.20;20.90;;;11.90;99.90;;;;;;5034728;28;20178;-78
2022/05/06 07:16:53;;;;;;;27.03;19.87;;;12.00;99.90;;;;;;5033418;28;20315;-79
2022/05/06 07:19:20;;;;;;;31.50;22.03;;;12.00;99.90;;;;;;5034266;28;20173;-78
2022/05/06 07:21:46;;;;;;;30.70;22.90;;;11.90;99.90;;;;;;5034699;28;20653;-79
2022/05/06 07:24:11;;;;;;;30.83;22.37;;;11.80;99.90;;;;;;5034657;28;20253;-84
2022/05/06 07:26:37;;;;;;;27.50;20.73;;;11.70;99.90;;;;;;5037984;28;20170;-85
2022/05/06 07:29:03;;;;;;;30.60;22.70;;;11.50;99.90;;;;;;5037122;28;20181;-87
2022/05/06 07:31:29;;;;;;;32.73;22.83;;;11.50;99.90;;;;;;5038347;28;20197;-87
2022/05/06 07:33:55;;;;;;;35.90;24.00;;;11.50;99.90;;;;;;5038086;28;20174;-86
2022/05/06 07:36:23;;;;;;;37.17;26.33;;;11.60;99.90;;;;;;5038359;28;20153;-84
2022/05/06 07:38:52;;;;;;;36.10;24.73;;;11.70;99.90;;;;;;5037476;28;20668;-86
2022/05/06 07:41:19;;;;;;;36.40;24.47;;;11.90;99.90;;;;;;5036400;28;20172;-84
2022/05/06 07:43:44;;;;;;;38.23;24.43;;;12.10;99.90;;;;;;5037820;28;20689;-87
2022/05/06 07:46:11;;;;;;;35.93;24.37;;;12.20;99.90;;;;;;5036612;28;20169;-87
2022/05/06 07:48:38;;;;;;;30.07;20.27;;;12.30;99.90;;;;;;5037488;28;20206;-86
2022/05/06 07:51:05;;;;;;;28.13;19.90;;;12.00;99.90;;;;;;5036543;28;20233;-87
2022/05/06 07:53:30;;;;;;;29.17;20.00;;;12.10;99.90;;;;;;5036258;28;20239;-85
2022/05/06 07:55:57;;;;;;;25.43;18.33;;;12.30;99.90;;;;;;5035103;28;20658;-86
2022/05/06 07:58:23;;;;;;;31.63;21.23;;;12.40;99.90;;;;;;5036466;28;20200;-87
2022/05/06 08:00:50;;;;;;;37.13;26.67;;;12.30;99.90;;;;;;5035779;28;20496;-86
2022/05/06 08:06:02;;;;;;;34.90;25.07;;;12.70;99.90;;;;;;5036392;28;20177;-86
2022/05/06 08:08:28;;;;;;;29.67;22.30;;;12.90;99.90;;;;;;5037111;28;20214;-88
2022/05/06 08:10:54;;;;;;;35.80;22.77;;;12.90;99.90;;;;;;5050108;28;20331;-84
2022/05/06 08:13:20;;;;;;;36.07;22.23;;;13.10;99.90;;;;;;5033184;28;20185;-88
2022/05/06 08:15:48;;;;;;;33.20;23.97;;;13.30;99.90;;;;;;5051597;28;20198;-84
2022/05/06 08:18:14;;;;;;;32.00;24.37;;;13.40;99.90;;;;;;5055273;28;20187;-82
2022/05/06 08:20:41;;;;;;;33.70;24.03;;;13.70;99.90;;;;;;5053463;28;20534;-85
2022/05/06 08:23:10;;;;;;;33.07;24.87;;;13.90;99.90;;;;;;5041213;28;20164;-87
2022/05/06 08:25:43;;;;;;;33.43;24.97;;;13.90;99.50;;;;;;5037574;28;20610;-86
2022/05/06 08:28:13;;;;;;;29.73;22.97;;;13.90;99.40;;;;;;5046694;28;20201;-80
2022/05/06 08:30:39;;;;;;;31.60;23.90;;;13.90;98.90;;;;;;5052778;28;20195;-84
2022/05/06 08:33:05;;;;;;;29.90;22.70;;;13.90;99.20;;;;;;5052587;28;20198;-85
2022/05/06 08:35:31;;;;;;;32.13;23.97;;;14.00;98.90;;;;;;5044901;28;20194;-87
2022/05/06 08:38:02;;;;;;;34.03;24.80;;;14.10;99.10;;;;;;5044866;28;20179;-86
2022/05/06 08:40:35;;;;;;;33.10;24.00;;;14.20;98.50;;;;;;5041585;28;20172;-86
2022/05/06 08:43:07;;;;;;;31.57;23.27;;;14.10;98.60;;;;;;5038459;28;20181;-86
2022/05/06 08:51:04;;;;;;;31.23;22.67;;;14.00;98.40;;;;;;5052079;28;20169;-84
2022/05/06 08:53:37;;;;;;;28.73;21.37;;;13.90;99.10;;;;;;5047088;28;20195;-87
2022/05/06 08:56:03;;;;;;;27.67;20.93;;;14.00;99.00;;;;;;5044539;28;20161;-86
2022/05/06 08:58:34;;;;;;;28.23;21.10;;;14.30;98.20;;;;;;5043462;28;20195;-86
2022/05/06 09:01:11;;;;;;;27.37;21.30;;;14.60;97.20;;;;;;5050434;28;20157;-82
2022/05/06 09:03:48;;;;;;;27.23;21.60;;;14.80;95.80;;;;;;5058300;28;20176;-86
2022/05/06 09:06:20;;;;;;;25.80;20.60;;;15.10;94.70;;;;;;5061052;28;20161;-81
2022/05/06 09:08:49;;;;;;;27.13;20.10;;;15.30;92.70;;;;;;5060152;28;20213;-84
2022/05/06 09:11:18;;;;;;;26.30;21.30;;;15.10;91.90;;;;;;5060693;28;20169;-85
2022/05/06 09:13:51;;;;;;;24.90;19.97;;;14.90;93.50;;;;;;5061409;28;20149;-83
2022/05/06 09:16:40;;;;;;;26.97;21.07;;;15.10;93.30;;;;;;5060764;28;20207;-85
2022/05/06 09:19:40;;;;;;;30.30;20.97;;;15.50;93.00;;;;;;5055970;28;20192;-83
2022/05/06 09:22:34;;;;;;;28.73;20.43;;;15.90;89.60;;;;;;5053374;28;20221;-85
2022/05/06 09:26:11;;;;;;;28.47;20.83;;;16.10;83.50;;;;;;5052244;28;20158;-86
2022/05/06 09:28:32;;;;;;;26.73;20.23;;;16.10;80.30;;;;;;5048837;28;20213;-87
2022/05/06 09:31:14;;;;;;;25.87;19.47;;;16.00;81.20;;;;;;5050808;28;20178;-85
2022/05/06 09:33:41;;;;;;;27.33;19.30;;;16.10;79.90;;;;;;5060655;28;20168;-79
2022/05/06 09:37:01;;;;;;;21.80;16.97;;;16.30;80.00;;;;;;5059967;28;20166;-85
2022/05/06 09:39:39;;;;;;;21.57;16.53;;;16.50;75.80;;;;;;5060916;28;20142;-82
2022/05/06 09:42:33;;;;;;;21.07;16.43;;;16.80;72.90;;;;;;5060456;28;20161;-81
2022/05/06 09:45:39;;;;;;;21.27;17.73;;;16.70;67.10;;;;;;5057981;28;20166;-85
2022/05/06 09:51:28;;;;;;;22.43;17.67;;;16.70;69.30;;;;;;5039850;28;20164;-86
2022/05/06 09:57:18;;;;;;;24.63;18.50;;;16.80;70.80;;;;;;5039118;28;20623;-84
2022/05/06 09:59:44;;;;;;;29.77;19.97;;;17.00;70.80;;;;;;5037672;28;20173;-86
2022/05/06 10:02:10;;;;;;;22.27;17.77;;;17.20;65.60;;;;;;5039838;28;20173;-85
2022/05/06 10:04:37;;;;;;;24.50;18.73;;;17.50;61.00;;;;;;5045525;28;20614;-86
2022/05/06 10:07:07;;;;;;;22.70;18.97;;;17.30;46.10;;;;;;5049489;28;20202;-80
2022/05/06 10:09:58;;;;;;;23.33;18.83;;;17.40;47.10;;;;;;5051102;28;20184;-77
2022/05/06 10:12:29;;;;;;;23.80;17.43;;;17.50;45.50;;;;;;5047682;28;20174;-85
2022/05/06 10:15:05;;;;;;;23.20;17.20;;;17.60;38.80;;;;;;5048267;28;20168;-82
2022/05/06 10:17:53;;;;;;;26.13;18.00;;;17.80;37.70;;;;;;5046220;28;20208;-84
2022/05/06 10:20:45;;;;;;;25.00;17.23;;;17.90;33.40;;;;;;5049276;28;20167;-84
2022/05/06 10:23:12;;;;;;;20.70;16.57;;;18.10;34.20;;;;;;5039160;28;20609;-84
2022/05/06 10:25:45;;;;;;;22.83;16.87;;;18.10;24.90;;;;;;5038915;28;20161;-86
2022/05/06 10:34:17;;;;;;;17.73;13.97;;;18.20;19.20;;;;;;5037814;28;20232;-85
2022/05/06 10:36:48;;;;;;;18.60;15.67;;;18.40;21.10;;;;;;5046807;28;20176;-84
2022/05/06 10:39:37;;;;;;;19.77;14.53;;;18.70;17.50;;;;;;5052151;28;20175;-82
2022/05/06 10:42:31;;;;;;;18.57;14.27;;;19.00;6.70;;;;;;5041298;28;20209;-84
2022/05/06 10:44:57;;;;;;;16.47;13.57;;;19.20;1.00;;;;;;5038282;28;20258;-84
2022/05/06 10:47:41;;;;;;;18.40;13.77;;;19.20;1.00;;;;;;5036383;28;20608;-85
2022/05/06 10:50:15;;;;;;;16.83;13.17;;;19.30;1.00;;;;;;5052462;28;20179;-85
2022/05/06 10:52:41;;;;;;;17.80;14.30;;;19.20;1.00;;;;;;5039908;28;20652;-85
2022/05/06 10:55:10;;;;;;;18.27;14.03;;;19.20;1.00;;;;;;5036689;28;20239;-85
2022/05/06 10:58:01;;;;;;;17.03;13.67;;;19.10;1.00;;;;;;5037017;28;20206;-85
2022/05/06 11:00:29;;;;;;;17.33;14.77;;;19.20;1.00;;;;;;5039188;28;20665;-84
2022/05/06 11:02:58;;;;;;;18.20;13.60;;;19.40;1.00;;;;;;5038166;28;20629;-86
2022/05/06 11:05:25;;;;;;;18.80;13.40;;;19.70;1.00;;;;;;5049356;28;20158;-83
2022/05/06 11:07:55;;;;;;;17.03;14.03;;;19.80;1.00;;;;;;5046514;28;20225;-84
2022/05/06 11:10:25;;;;;;;16.73;14.37;;;20.00;1.00;;;;;;5038603;28;20272;-86
2022/05/06 11:12:53;;;;;;;16.07;13.67;;;20.10;1.00;;;;;;5037186;28;20208;-86
2022/05/06 11:15:24;;;;;;;14.50;12.90;;;20.10;1.00;;;;;;5037193;28;20172;-85
2022/05/06 11:17:51;;;;;;;17.43;14.00;;;20.20;1.00;;;;;;5037713;28;20166;-82
2022/05/06 11:20:27;;;;;;;17.00;12.87;;;20.30;1.00;;;;;;5037164;28;20166;-80
2022/05/06 11:22:58;;;;;;;14.80;12.90;;;20.40;1.00;;;;;;5038319;28;20238;-86
2022/05/06 11:25:26;;;;;;;14.83;12.40;;;20.40;1.00;;;;;;5043349;28;20248;-85
2022/05/06 11:27:54;;;;;;;16.37;12.97;;;20.50;1.00;;;;;;5035712;28;20210;-85
2022/05/06 11:30:21;;;;;;;14.37;11.93;;;20.60;1.00;;;;;;5036723;28;20205;-84
2022/05/06 11:32:59;;;;;;;16.07;12.07;;;20.80;1.00;;;;;;5037381;28;20196;-84
2022/05/06 11:35:33;;;;;;;17.17;11.23;;;20.90;1.00;;;;;;5040803;28;20181;-84
2022/05/06 11:37:59;;;;;;;15.63;11.40;;;21.00;1.00;;;;;;5034874;28;20264;-85
2022/05/06 11:40:33;;;;;;;13.37;10.10;;;21.10;1.00;;;;;;5037191;28;20166;-86
2022/05/06 11:43:01;;;;;;;14.17;10.73;;;21.30;1.00;;;;;;5038136;28;20174;-80
2022/05/06 11:48:13;;;;;;;10.00;8.77;;;21.00;1.00;;;;;;5041726;28;20255;-86
2022/05/06 11:50:41;;;;;;;10.90;8.70;;;20.80;1.00;;;;;;5043099;28;20170;-83
2022/05/06 11:53:13;;;;;;;12.53;9.47;;;21.00;1.00;;;;;;5042007;28;20189;-86
2022/05/06 11:55:42;;;;;;;11.67;8.87;;;21.00;1.00;;;;;;5036291;28;20663;-85
2022/05/06 11:58:15;;;;;;;12.40;8.93;;;21.10;1.00;;;;;;5035924;28;20582;-85
2022/05/06 12:00:45;;;;;;;10.93;8.90;;;21.20;1.00;;;;;;5036793;28;20174;-85
2022/05/06 12:03:12;;;;;;;12.43;9.07;;;20.90;1.00;;;;;;5035929;28;20721;-86
2022/05/06 12:05:39;;;;;;;11.67;9.37;;;20.70;1.00;;;;;;5035944;28;20173;-85
2022/05/06 12:08:05;;;;;;;14.40;9.30;;;20.80;1.00;;;;;;5034883;28;20215;-83
2022/05/06 12:10:35;;;;;;;10.73;9.63;;;21.10;1.00;;;;;;5036210;28;20172;-85
2022/05/06 12:13:04;;;;;;;13.83;9.20;;;21.20;1.00;;;;;;5035447;28;20192;-80
2022/05/06 12:15:33;;;;;;;13.83;9.27;;;21.10;1.00;;;;;;5035275;28;20185;-83
2022/05/06 12:18:09;;;;;;;9.93;8.20;;;20.80;1.00;;;;;;5035585;28;20176;-79
2022/05/06 12:20:43;;;;;;;12.23;8.40;;;20.90;1.00;;;;;;5039915;28;20168;-82
2022/05/06 12:23:12;;;;;;;10.30;8.07;;;21.00;1.00;;;;;;5047496;28;20271;-84
2022/05/06 12:25:39;;;;;;;10.43;8.10;;;20.90;99.90;;;;;;5042043;28;20162;-79
2022/05/06 12:28:16;;;;;;;14.90;8.63;;;20.80;1.00;;;;;;5038848;28;20238;-78
2022/05/06 12:30:46;;;;;;;9.23;7.40;;;21.10;1.00;;;;;;5052771;28;20158;-79
2022/05/06 12:33:15;;;;;;;9.63;6.53;;;20.90;99.90;;;;;;5051428;28;20173;-80
2022/05/06 12:35:56;;;;;;;8.93;5.97;;;21.00;99.90;;;;;;5043049;28;20198;-84
2022/05/06 12:38:43;;;;;;;9.17;7.03;;;21.00;1.00;;;;;;5041041;28;20245;-87
2022/05/06 12:41:43;;;;;;;9.03;6.80;;;20.90;99.90;;;;;;5043137;28;20250;-85
2022/05/06 12:44:23;;;;;;;10.50;6.53;;;21.10;99.90;;;;;;5041162;28;20181;-84
2022/05/06 12:46:49;;;;;;;8.80;6.17;;;21.20;99.90;;;;;;5044836;28;20638;-85
2022/05/06 12:49:39;;;;;;;6.87;5.57;;;21.40;99.90;;;;;;5039620;28;20190;-79
2022/05/06 12:52:08;;;;;;;9.57;7.23;;;21.60;1.00;;;;;;5039577;28;20177;-85
2022/05/06 12:54:35;;;;;;;11.77;6.90;;;21.80;16.60;;;;;;5037164;28;20203;-79
2022/05/06 12:57:03;;;;;;;9.33;6.63;;;21.90;1.00;;;;;;5038452;28;20201;-79
2022/05/06 12:59:29;;;;;;;13.00;6.97;;;22.00;99.90;;;;;;5040096;28;20161;-79
2022/05/06 13:01:55;;;;;;;8.50;6.63;;;21.70;1.00;;;;;;5039513;28;20219;-84
2022/05/06 13:04:21;;;;;;;11.80;6.27;;;21.50;98.50;;;;;;5038484;28;20329;-82
2022/05/06 13:06:47;;;;;;;9.43;7.03;;;21.70;1.00;;;;;;5038454;28;20204;-83
2022/05/06 13:09:12;;;;;;;9.37;6.90;;;21.80;99.90;;;;;;5038888;28;20671;-85
2022/05/06 13:11:38;;;;;;;9.73;6.30;;;22.00;99.90;;;;;;5039332;28;20651;-78
2022/05/06 13:14:06;;;;;;;10.43;6.40;;;22.20;1.00;;;;;;5040662;28;20177;-79
2022/05/06 13:16:32;;;;;;;8.23;6.10;;;22.40;99.90;;;;;;5047552;28;20185;-80
2022/05/06 13:18:58;;;;;;;8.47;7.00;;;22.30;65.30;;;;;;5045537;28;20665;-86
2022/05/06 13:21:23;;;;;;;8.83;6.73;;;22.40;99.90;;;;;;5041130;28;20176;-85
2022/05/06 13:23:49;;;;;;;7.43;6.40;;;22.40;99.90;;;;;;5043870;28;20165;-84